Portada
METAR-TAF:

METAR-TAF

Aeropuertos :

Aeropuerto Internacional de Baréin

Baréin, Bahréin

latitud: 26-16N, longitud: 050-39E, altitud: 2 m

Observación

El informe se hizo hace 14 minutos, a las 15:30 UTC
Viento 17 kt del noroeste
Temperatura 23°C
Humedad 73%
Presión 1019 hPa
Visibilidad 10 km o más
Escasas nubes a una altura de 3000 ft

METAR: OBBI 201530Z 31017KT 9999 FEW030 23/18 Q1019 NOSIG

Hora: 18:44 (15:44 UTC)

Pronóstico

El informe se hizo hace 4 horas y 44 minutos, a las 11:00 UTC
Pronóstico válido del 20 a las 12 UTC al 21 a las 18 UTC
Viento 14 kt del norte-noroeste
Visibilidad 10 km o más
Escasas nubes a una altura de 3000 ft

TAF: OBBI 201100Z 2012/2118 33014KT 9999 FEW030

Observaciones y pronósticos meteorológicos de más de 4000 aeropuertos (mensajes METAR y TAF).

Los puntos amarillos y rojos representan las estaciones disponibles.

Ponga el ratón en el punto deseado para ver el nombre de la estación.

Haga clic para ver las observaciones y los pronósticos meteorológicos.

Para cambiar el mapa : haga clic en los botones verdes con una cruz de color negro para hacer un zoom, en el botón verde con un guión para alejar o en las flechas verdes para mapas adyacentes.


METAR-TAF: